Time;durP1;ratioP1;P1;durP2;ratioP2;P2;SDS_P1;SDS_P2;PMS_P1;PMS_P2;Temp;Humidity;BMP_temperature;BMP_pressure;BME280_temperature;BME280_humidity;BME280_pressure;Samples;Min_cycle;Max_cycle;Signal;HPM_P1;HPM_P2
2021/10/23 00:02:56;;;;;;;14.67;4.63;;;;;;;;;;6230306;23;20159;-90
2021/10/23 00:06:03;;;;;;;12.50;3.73;;;;;;;;;;6230110;23;20311;-88
2021/10/23 00:09:08;;;;;;;10.00;3.90;;;;;;;;;;6230971;23;20198;-90
2021/10/23 00:12:13;;;;;;;14.53;4.27;;;;;;;;;;6212783;23;20440;-89
2021/10/23 00:15:18;;;;;;;13.20;4.17;;;;;;;;;;6230486;23;20246;-90
2021/10/23 00:18:24;;;;;;;11.77;4.50;;;;;;;;;;6231457;23;20175;-90
2021/10/23 00:21:31;;;;;;;8.57;4.10;;;;;;;;;;6229872;23;20175;-89
2021/10/23 00:24:36;;;;;;;14.17;4.77;;;;;;;;;;6229053;23;20222;-89
2021/10/23 00:27:41;;;;;;;9.37;3.60;;;;;;;;;;6228445;23;20377;-89
2021/10/23 00:30:47;;;;;;;8.20;3.00;;;;;;;;;;6230454;23;20167;-90
2021/10/23 00:33:52;;;;;;;11.07;2.90;;;;;;;;;;6229061;23;20171;-89
2021/10/23 00:36:59;;;;;;;9.07;2.97;;;;;;;;;;6228706;23;20285;-90
2021/10/23 00:40:05;;;;;;;13.47;3.70;;;;;;;;;;6229373;23;20171;-89
2021/10/23 00:43:10;;;;;;;12.57;3.93;;;;;;;;;;6228040;23;20162;-90
2021/10/23 00:46:16;;;;;;;12.17;3.63;;;;;;;;;;6227698;23;20222;-89
2021/10/23 00:49:21;;;;;;;12.63;3.40;;;;;;;;;;6229583;23;20240;-90
2021/10/23 00:52:28;;;;;;;13.63;3.67;;;;;;;;;;6212543;23;20167;-91
2021/10/23 00:55:33;;;;;;;13.00;5.10;;;;;;;;;;6226718;23;20168;-89
2021/10/23 00:58:39;;;;;;;15.57;5.17;;;;;;;;;;6228650;23;20167;-89
2021/10/23 01:01:44;;;;;;;15.50;4.93;;;;;;;;;;6228751;23;20214;-88
2021/10/23 01:04:49;;;;;;;14.73;4.50;;;;;;;;;;6229682;23;20523;-90
2021/10/23 01:07:56;;;;;;;13.70;4.77;;;;;;;;;;6228796;23;20175;-89
2021/10/23 01:11:01;;;;;;;11.10;4.53;;;;;;;;;;6228292;23;20179;-89
2021/10/23 01:14:07;;;;;;;16.93;5.13;;;;;;;;;;6227823;23;20178;-88
2021/10/23 01:17:12;;;;;;;16.73;5.23;;;;;;;;;;6227998;23;20158;-90
2021/10/23 01:20:19;;;;;;;15.73;4.23;;;;;;;;;;6230977;23;20250;-89
2021/10/23 01:23:24;;;;;;;16.57;4.93;;;;;;;;;;6223925;23;20167;-88
2021/10/23 01:26:29;;;;;;;13.07;4.30;;;;;;;;;;6223254;23;20310;-88
2021/10/23 01:29:34;;;;;;;18.63;4.37;;;;;;;;;;6224115;23;20302;-89
2021/10/23 01:32:39;;;;;;;12.83;4.07;;;;;;;;;;6224253;23;20179;-90
2021/10/23 01:35:46;;;;;;;10.87;3.53;;;;;;;;;;6223419;23;20167;-89
2021/10/23 01:38:52;;;;;;;11.73;3.77;;;;;;;;;;6225116;23;20513;-89
2021/10/23 01:41:57;;;;;;;12.60;4.03;;;;;;;;;;6225924;23;20167;-89
2021/10/23 01:45:02;;;;;;;18.87;4.63;;;;;;;;;;6225412;23;20187;-89
2021/10/23 01:48:07;;;;;;;14.93;4.80;;;;;;;;;;6225563;23;20179;-89
2021/10/23 01:51:15;;;;;;;14.53;4.17;;;;;;;;;;6224747;23;20164;-90
2021/10/23 01:54:20;;;;;;;16.10;4.53;;;;;;;;;;6226024;23;20187;-88
2021/10/23 01:57:25;;;;;;;13.97;4.90;;;;;;;;;;6224993;23;20210;-89
2021/10/23 02:00:30;;;;;;;18.77;4.47;;;;;;;;;;6225932;23;20171;-89
2021/10/23 02:03:37;;;;;;;12.27;4.77;;;;;;;;;;6209857;23;20171;-91
2021/10/23 02:06:44;;;;;;;14.00;4.53;;;;;;;;;;6226254;23;20190;-90
2021/10/23 02:09:48;;;;;;;9.43;4.20;;;;;;;;;;6225964;23;20163;-89
2021/10/23 02:12:53;;;;;;;14.90;4.87;;;;;;;;;;6226999;23;20159;-90
2021/10/23 02:19:53;;;;;;;14.20;4.03;;;;;;;;;;6225210;23;20646;-89
2021/10/23 02:22:59;;;;;;;12.87;4.10;;;;;;;;;;6229667;23;20170;-90
2021/10/23 02:26:04;;;;;;;14.67;5.20;;;;;;;;;;6225933;23;20645;-90
2021/10/23 02:29:10;;;;;;;13.63;5.53;;;;;;;;;;6225062;23;20198;-90
2021/10/23 02:32:15;;;;;;;17.20;5.47;;;;;;;;;;6225668;23;20470;-89
2021/10/23 02:35:20;;;;;;;13.70;4.73;;;;;;;;;;6224510;23;20227;-89
2021/10/23 02:38:27;;;;;;;13.83;4.40;;;;;;;;;;6225193;23;20178;-90
2021/10/23 02:41:32;;;;;;;13.80;4.20;;;;;;;;;;6224635;23;20187;-89
2021/10/23 02:44:37;;;;;;;10.23;4.67;;;;;;;;;;6224220;23;20170;-90
2021/10/23 02:47:42;;;;;;;11.27;4.00;;;;;;;;;;6225514;23;20198;-90
2021/10/23 02:50:47;;;;;;;10.43;3.40;;;;;;;;;;6225750;23;20271;-89
2021/10/23 02:53:53;;;;;;;9.50;3.97;;;;;;;;;;6225176;23;20172;-90
2021/10/23 02:56:58;;;;;;;13.20;3.83;;;;;;;;;;6224566;23;20174;-89
2021/10/23 03:00:07;;;;;;;14.27;3.60;;;;;;;;;;6224799;23;20457;-90
2021/10/23 03:03:13;;;;;;;7.97;2.60;;;;;;;;;;6224590;23;20215;-90
2021/10/23 03:06:19;;;;;;;10.90;4.30;;;;;;;;;;6228953;23;20194;-89
2021/10/23 03:09:26;;;;;;;14.77;3.60;;;;;;;;;;6223558;23;20226;-89
2021/10/23 03:12:31;;;;;;;11.23;2.67;;;;;;;;;;6223686;23;20237;-90
2021/10/23 03:15:40;;;;;;;8.70;2.80;;;;;;;;;;6223439;23;20283;-90
2021/10/23 03:18:45;;;;;;;9.83;2.80;;;;;;;;;;6222831;23;20167;-90
2021/10/23 03:21:51;;;;;;;10.90;3.30;;;;;;;;;;6224453;23;20222;-90
